sensor_id;sensor_type;location;lat;lon;timestamp;P1;durP1;ratioP1;P2;durP2;ratioP2
15126;SDS011;7664;52.008;4.748;2023-07-29T00:00:20;3.17;;;0.85;;
15126;SDS011;7664;52.008;4.748;2023-07-29T00:02:49;1.88;;;0.75;;
15126;SDS011;7664;52.008;4.748;2023-07-29T00:05:17;2.22;;;1.13;;
15126;SDS011;7664;52.008;4.748;2023-07-29T00:07:47;1.35;;;0.93;;
15126;SDS011;7664;52.008;4.748;2023-07-29T00:10:15;2.28;;;0.93;;
15126;SDS011;7664;52.008;4.748;2023-07-29T00:12:44;1.70;;;0.98;;
15126;SDS011;7664;52.008;4.748;2023-07-29T00:15:12;1.02;;;0.80;;
15126;SDS011;7664;52.008;4.748;2023-07-29T00:17:40;2.28;;;1.33;;
15126;SDS011;7664;52.008;4.748;2023-07-29T00:20:09;2.00;;;1.00;;
15126;SDS011;7664;52.008;4.748;2023-07-29T00:22:37;2.75;;;1.33;;
15126;SDS011;7664;52.008;4.748;2023-07-29T00:25:08;2.17;;;1.30;;
15126;SDS011;7664;52.008;4.748;2023-07-29T00:27:36;2.58;;;1.15;;
15126;SDS011;7664;52.008;4.748;2023-07-29T00:30:05;2.75;;;1.20;;
15126;SDS011;7664;52.008;4.748;2023-07-29T00:32:35;1.80;;;1.33;;
15126;SDS011;7664;52.008;4.748;2023-07-29T00:35:04;2.33;;;1.65;;
15126;SDS011;7664;52.008;4.748;2023-07-29T00:37:33;2.42;;;1.50;;
15126;SDS011;7664;52.008;4.748;2023-07-29T00:40:04;2.22;;;1.05;;
15126;SDS011;7664;52.008;4.748;2023-07-29T00:42:37;2.15;;;1.35;;
15126;SDS011;7664;52.008;4.748;2023-07-29T00:45:05;2.20;;;1.33;;
15126;SDS011;7664;52.008;4.748;2023-07-29T00:47:34;4.63;;;1.50;;
15126;SDS011;7664;52.008;4.748;2023-07-29T00:50:03;3.00;;;1.38;;
15126;SDS011;7664;52.008;4.748;2023-07-29T00:52:32;3.55;;;1.38;;
15126;SDS011;7664;52.008;4.748;2023-07-29T00:55:02;5.00;;;1.40;;
15126;SDS011;7664;52.008;4.748;2023-07-29T00:57:30;2.95;;;1.20;;
15126;SDS011;7664;52.008;4.748;2023-07-29T01:00:01;1.67;;;1.08;;
15126;SDS011;7664;52.008;4.748;2023-07-29T01:02:30;2.88;;;1.10;;
15126;SDS011;7664;52.008;4.748;2023-07-29T01:05:00;4.45;;;1.50;;
15126;SDS011;7664;52.008;4.748;2023-07-29T01:07:30;3.45;;;1.40;;
15126;SDS011;7664;52.008;4.748;2023-07-29T01:10:02;1.25;;;0.93;;
15126;SDS011;7664;52.008;4.748;2023-07-29T01:12:35;3.40;;;1.48;;
15126;SDS011;7664;52.008;4.748;2023-07-29T01:15:09;4.85;;;1.40;;
15126;SDS011;7664;52.008;4.748;2023-07-29T01:17:40;3.55;;;1.85;;
15126;SDS011;7664;52.008;4.748;2023-07-29T01:20:11;2.47;;;1.15;;
15126;SDS011;7664;52.008;4.748;2023-07-29T01:22:41;3.40;;;1.70;;
15126;SDS011;7664;52.008;4.748;2023-07-29T01:25:11;2.22;;;1.55;;
15126;SDS011;7664;52.008;4.748;2023-07-29T01:27:40;3.90;;;1.92;;
15126;SDS011;7664;52.008;4.748;2023-07-29T01:30:08;3.28;;;1.80;;
15126;SDS011;7664;52.008;4.748;2023-07-29T01:32:39;4.65;;;2.05;;
15126;SDS011;7664;52.008;4.748;2023-07-29T01:35:14;4.00;;;1.80;;
15126;SDS011;7664;52.008;4.748;2023-07-29T01:37:44;2.22;;;1.30;;
15126;SDS011;7664;52.008;4.748;2023-07-29T01:40:18;3.75;;;1.92;;
15126;SDS011;7664;52.008;4.748;2023-07-29T01:42:47;3.40;;;1.90;;
15126;SDS011;7664;52.008;4.748;2023-07-29T01:45:16;3.53;;;1.77;;
15126;SDS011;7664;52.008;4.748;2023-07-29T01:47:45;3.03;;;1.55;;
15126;SDS011;7664;52.008;4.748;2023-07-29T01:50:14;4.03;;;1.73;;
15126;SDS011;7664;52.008;4.748;2023-07-29T01:52:42;4.40;;;1.50;;
15126;SDS011;7664;52.008;4.748;2023-07-29T01:55:11;4.55;;;1.88;;
15126;SDS011;7664;52.008;4.748;2023-07-29T01:57:40;2.95;;;1.50;;
15126;SDS011;7664;52.008;4.748;2023-07-29T02:00:11;2.97;;;1.90;;
15126;SDS011;7664;52.008;4.748;2023-07-29T02:02:40;3.15;;;2.10;;
15126;SDS011;7664;52.008;4.748;2023-07-29T02:05:08;2.67;;;1.60;;
15126;SDS011;7664;52.008;4.748;2023-07-29T02:07:36;3.25;;;1.30;;
15126;SDS011;7664;52.008;4.748;2023-07-29T02:10:05;1.83;;;1.52;;
15126;SDS011;7664;52.008;4.748;2023-07-29T02:12:34;2.15;;;1.50;;
15126;SDS011;7664;52.008;4.748;2023-07-29T02:15:04;1.98;;;1.10;;
15126;SDS011;7664;52.008;4.748;2023-07-29T02:17:33;3.13;;;1.70;;
15126;SDS011;7664;52.008;4.748;2023-07-29T02:20:02;3.58;;;1.65;;
15126;SDS011;7664;52.008;4.748;2023-07-29T02:22:30;2.30;;;1.52;;
15126;SDS011;7664;52.008;4.748;2023-07-29T02:24:59;3.60;;;1.42;;
15126;SDS011;7664;52.008;4.748;2023-07-29T02:27:27;2.70;;;1.70;;
15126;SDS011;7664;52.008;4.748;2023-07-29T02:29:56;3.38;;;1.40;;
15126;SDS011;7664;52.008;4.748;2023-07-29T02:32:26;1.58;;;1.33;;
15126;SDS011;7664;52.008;4.748;2023-07-29T02:34:54;2.75;;;1.40;;
15126;SDS011;7664;52.008;4.748;2023-07-29T02:37:23;3.75;;;1.33;;
15126;SDS011;7664;52.008;4.748;2023-07-29T02:39:51;3.45;;;1.13;;
15126;SDS011;7664;52.008;4.748;2023-07-29T02:42:20;2.90;;;1.55;;
15126;SDS011;7664;52.008;4.748;2023-07-29T02:44:48;2.53;;;1.40;;
15126;SDS011;7664;52.008;4.748;2023-07-29T02:47:16;2.05;;;1.38;;
15126;SDS011;7664;52.008;4.748;2023-07-29T02:49:46;1.88;;;1.08;;
15126;SDS011;7664;52.008;4.748;2023-07-29T02:52:14;2.28;;;1.40;;
15126;SDS011;7664;52.008;4.748;2023-07-29T02:54:43;1.80;;;1.13;;
15126;SDS011;7664;52.008;4.748;2023-07-29T02:57:13;2.85;;;1.42;;
15126;SDS011;7664;52.008;4.748;2023-07-29T02:59:41;0.88;;;0.80;;
15126;SDS011;7664;52.008;4.748;2023-07-29T03:02:09;1.63;;;1.10;;
15126;SDS011;7664;52.008;4.748;2023-07-29T03:04:38;6.63;;;1.20;;
15126;SDS011;7664;52.008;4.748;2023-07-29T03:07:08;2.38;;;1.38;;
15126;SDS011;7664;52.008;4.748;2023-07-29T03:09:37;1.55;;;1.20;;
15126;SDS011;7664;52.008;4.748;2023-07-29T03:12:08;1.65;;;1.10;;
15126;SDS011;7664;52.008;4.748;2023-07-29T03:14:36;1.88;;;1.20;;
15126;SDS011;7664;52.008;4.748;2023-07-29T03:17:05;3.33;;;1.65;;
15126;SDS011;7664;52.008;4.748;2023-07-29T03:19:34;2.85;;;1.50;;
15126;SDS011;7664;52.008;4.748;2023-07-29T03:22:03;1.67;;;1.08;;
15126;SDS011;7664;52.008;4.748;2023-07-29T03:24:33;2.08;;;1.20;;
15126;SDS011;7664;52.008;4.748;2023-07-29T03:27:02;2.42;;;1.30;;
15126;SDS011;7664;52.008;4.748;2023-07-29T03:29:30;2.65;;;1.40;;
15126;SDS011;7664;52.008;4.748;2023-07-29T03:31:58;1.65;;;1.27;;
15126;SDS011;7664;52.008;4.748;2023-07-29T03:34:27;1.77;;;1.23;;
15126;SDS011;7664;52.008;4.748;2023-07-29T03:36:55;1.33;;;1.10;;
15126;SDS011;7664;52.008;4.748;2023-07-29T03:39:23;1.70;;;1.35;;
15126;SDS011;7664;52.008;4.748;2023-07-29T03:41:53;2.50;;;1.48;;
15126;SDS011;7664;52.008;4.748;2023-07-29T03:44:22;3.88;;;1.60;;
15126;SDS011;7664;52.008;4.748;2023-07-29T03:46:50;2.28;;;1.38;;
15126;SDS011;7664;52.008;4.748;2023-07-29T03:49:19;1.75;;;1.17;;
15126;SDS011;7664;52.008;4.748;2023-07-29T03:51:47;2.05;;;1.13;;
15126;SDS011;7664;52.008;4.748;2023-07-29T03:54:16;2.08;;;1.25;;
15126;SDS011;7664;52.008;4.748;2023-07-29T03:56:44;2.20;;;1.42;;
15126;SDS011;7664;52.008;4.748;2023-07-29T03:59:14;2.53;;;1.40;;
15126;SDS011;7664;52.008;4.748;2023-07-29T04:01:43;2.25;;;1.20;;
15126;SDS011;7664;52.008;4.748;2023-07-29T04:04:11;1.50;;;1.15;;
15126;SDS011;7664;52.008;4.748;2023-07-29T04:06:40;2.40;;;1.33;;
15126;SDS011;7664;52.008;4.748;2023-07-29T04:09:08;2.55;;;1.10;;
15126;SDS011;7664;52.008;4.748;2023-07-29T04:11:37;4.47;;;1.33;;
15126;SDS011;7664;52.008;4.748;2023-07-29T04:14:05;1.73;;;1.10;;
15126;SDS011;7664;52.008;4.748;2023-07-29T04:16:35;2.72;;;1.50;;
15126;SDS011;7664;52.008;4.748;2023-07-29T04:19:04;3.40;;;1.60;;
15126;SDS011;7664;52.008;4.748;2023-07-29T04:21:32;3.85;;;1.50;;
15126;SDS011;7664;52.008;4.748;2023-07-29T04:24:01;2.35;;;1.55;;
15126;SDS011;7664;52.008;4.748;2023-07-29T04:26:30;2.17;;;1.20;;
15126;SDS011;7664;52.008;4.748;2023-07-29T04:28:58;3.58;;;1.30;;
15126;SDS011;7664;52.008;4.748;2023-07-29T04:31:26;3.45;;;1.75;;
15126;SDS011;7664;52.008;4.748;2023-07-29T04:33:56;4.43;;;1.92;;
15126;SDS011;7664;52.008;4.748;2023-07-29T04:36:25;2.80;;;1.58;;
15126;SDS011;7664;52.008;4.748;2023-07-29T04:38:53;2.92;;;1.42;;
15126;SDS011;7664;52.008;4.748;2023-07-29T04:41:22;4.75;;;1.88;;
15126;SDS011;7664;52.008;4.748;2023-07-29T04:43:50;2.05;;;1.52;;
15126;SDS011;7664;52.008;4.748;2023-07-29T04:46:19;2.40;;;1.50;;
15126;SDS011;7664;52.008;4.748;2023-07-29T04:48:47;2.67;;;1.88;;
15126;SDS011;7664;52.008;4.748;2023-07-29T04:51:21;2.95;;;1.65;;
15126;SDS011;7664;52.008;4.748;2023-07-29T04:53:49;3.22;;;2.05;;
15126;SDS011;7664;52.008;4.748;2023-07-29T04:56:18;3.17;;;1.70;;
15126;SDS011;7664;52.008;4.748;2023-07-29T04:58:46;4.65;;;1.88;;
15126;SDS011;7664;52.008;4.748;2023-07-29T05:01:14;3.08;;;1.77;;
15126;SDS011;7664;52.008;4.748;2023-07-29T05:03:43;5.82;;;1.98;;
15126;SDS011;7664;52.008;4.748;2023-07-29T05:06:12;3.33;;;2.10;;
15126;SDS011;7664;52.008;4.748;2023-07-29T05:08:42;2.17;;;1.77;;
15126;SDS011;7664;52.008;4.748;2023-07-29T05:11:10;2.90;;;1.95;;
15126;SDS011;7664;52.008;4.748;2023-07-29T05:13:39;5.05;;;2.20;;
15126;SDS011;7664;52.008;4.748;2023-07-29T05:16:09;3.50;;;2.30;;
15126;SDS011;7664;52.008;4.748;2023-07-29T05:18:37;5.65;;;2.13;;
15126;SDS011;7664;52.008;4.748;2023-07-29T05:21:06;2.95;;;1.83;;
15126;SDS011;7664;52.008;4.748;2023-07-29T05:23:35;3.88;;;2.45;;
15126;SDS011;7664;52.008;4.748;2023-07-29T05:26:05;4.00;;;2.30;;
15126;SDS011;7664;52.008;4.748;2023-07-29T05:28:33;2.75;;;1.80;;
15126;SDS011;7664;52.008;4.748;2023-07-29T05:31:02;4.82;;;2.45;;
15126;SDS011;7664;52.008;4.748;2023-07-29T05:33:31;4.97;;;2.33;;
15126;SDS011;7664;52.008;4.748;2023-07-29T05:35:59;4.03;;;2.20;;
15126;SDS011;7664;52.008;4.748;2023-07-29T05:38:28;3.45;;;2.25;;
15126;SDS011;7664;52.008;4.748;2023-07-29T05:40:56;3.95;;;2.55;;
15126;SDS011;7664;52.008;4.748;2023-07-29T05:43:26;7.32;;;2.83;;
15126;SDS011;7664;52.008;4.748;2023-07-29T05:45:55;3.72;;;2.28;;
15126;SDS011;7664;52.008;4.748;2023-07-29T05:48:23;5.65;;;2.75;;
15126;SDS011;7664;52.008;4.748;2023-07-29T05:50:51;5.53;;;2.55;;
15126;SDS011;7664;52.008;4.748;2023-07-29T05:53:20;5.95;;;2.67;;
15126;SDS011;7664;52.008;4.748;2023-07-29T05:55:48;4.90;;;2.60;;
15126;SDS011;7664;52.008;4.748;2023-07-29T05:58:18;4.13;;;2.92;;
15126;SDS011;7664;52.008;4.748;2023-07-29T06:00:48;5.60;;;2.85;;
15126;SDS011;7664;52.008;4.748;2023-07-29T06:03:17;7.25;;;3.22;;
15126;SDS011;7664;52.008;4.748;2023-07-29T06:05:46;4.18;;;2.58;;
15126;SDS011;7664;52.008;4.748;2023-07-29T06:08:18;5.47;;;2.67;;
15126;SDS011;7664;52.008;4.748;2023-07-29T06:10:46;5.78;;;2.75;;
15126;SDS011;7664;52.008;4.748;2023-07-29T06:13:15;5.20;;;2.38;;
15126;SDS011;7664;52.008;4.748;2023-07-29T06:15:43;3.20;;;2.13;;
15126;SDS011;7664;52.008;4.748;2023-07-29T06:18:13;3.97;;;2.47;;
15126;SDS011;7664;52.008;4.748;2023-07-29T06:20:42;4.65;;;2.58;;
15126;SDS011;7664;52.008;4.748;2023-07-29T06:23:11;6.80;;;2.47;;
15126;SDS011;7664;52.008;4.748;2023-07-29T06:25:39;5.88;;;3.20;;
15126;SDS011;7664;52.008;4.748;2023-07-29T06:28:08;4.00;;;2.22;;
15126;SDS011;7664;52.008;4.748;2023-07-29T06:30:37;4.07;;;2.13;;
15126;SDS011;7664;52.008;4.748;2023-07-29T06:33:05;2.97;;;2.17;;
15126;SDS011;7664;52.008;4.748;2023-07-29T06:35:36;3.92;;;2.15;;
15126;SDS011;7664;52.008;4.748;2023-07-29T06:38:05;3.05;;;2.13;;
15126;SDS011;7664;52.008;4.748;2023-07-29T06:40:33;3.72;;;2.30;;
15126;SDS011;7664;52.008;4.748;2023-07-29T06:43:02;3.67;;;2.20;;
15126;SDS011;7664;52.008;4.748;2023-07-29T06:45:30;2.25;;;1.67;;
15126;SDS011;7664;52.008;4.748;2023-07-29T06:47:58;3.75;;;2.40;;
15126;SDS011;7664;52.008;4.748;2023-07-29T06:50:27;8.95;;;2.80;;
15126;SDS011;7664;52.008;4.748;2023-07-29T06:52:56;4.60;;;2.08;;
15126;SDS011;7664;52.008;4.748;2023-07-29T06:55:25;2.83;;;1.58;;
15126;SDS011;7664;52.008;4.748;2023-07-29T06:57:53;2.30;;;1.23;;
15126;SDS011;7664;52.008;4.748;2023-07-29T07:00:21;5.40;;;1.80;;
15126;SDS011;7664;52.008;4.748;2023-07-29T07:02:50;6.70;;;1.90;;
15126;SDS011;7664;52.008;4.748;2023-07-29T07:05:18;2.60;;;1.50;;
15126;SDS011;7664;52.008;4.748;2023-07-29T07:07:47;2.10;;;1.50;;
15126;SDS011;7664;52.008;4.748;2023-07-29T07:10:16;4.03;;;1.38;;
15126;SDS011;7664;52.008;4.748;2023-07-29T07:12:45;2.75;;;1.50;;
15126;SDS011;7664;52.008;4.748;2023-07-29T07:15:13;2.88;;;1.35;;
15126;SDS011;7664;52.008;4.748;2023-07-29T07:17:42;3.22;;;1.65;;
15126;SDS011;7664;52.008;4.748;2023-07-29T07:20:11;1.83;;;1.23;;
15126;SDS011;7664;52.008;4.748;2023-07-29T07:22:39;1.67;;;1.00;;
15126;SDS011;7664;52.008;4.748;2023-07-29T07:25:08;2.20;;;1.20;;
15126;SDS011;7664;52.008;4.748;2023-07-29T07:27:38;1.60;;;1.10;;
15126;SDS011;7664;52.008;4.748;2023-07-29T07:30:06;2.30;;;1.30;;
15126;SDS011;7664;52.008;4.748;2023-07-29T07:32:35;2.00;;;1.20;;
15126;SDS011;7664;52.008;4.748;2023-07-29T07:35:04;4.05;;;1.30;;
15126;SDS011;7664;52.008;4.748;2023-07-29T07:37:33;3.25;;;1.63;;
15126;SDS011;7664;52.008;4.748;2023-07-29T07:40:01;2.65;;;1.42;;
15126;SDS011;7664;52.008;4.748;2023-07-29T07:42:30;3.13;;;1.05;;
15126;SDS011;7664;52.008;4.748;2023-07-29T07:45:00;2.25;;;1.13;;
15126;SDS011;7664;52.008;4.748;2023-07-29T07:47:28;2.97;;;1.23;;
15126;SDS011;7664;52.008;4.748;2023-07-29T07:49:56;1.55;;;1.05;;
15126;SDS011;7664;52.008;4.748;2023-07-29T07:52:25;1.40;;;1.20;;
15126;SDS011;7664;52.008;4.748;2023-07-29T07:54:54;2.72;;;1.60;;
15126;SDS011;7664;52.008;4.748;2023-07-29T07:57:22;3.17;;;1.40;;
15126;SDS011;7664;52.008;4.748;2023-07-29T07:59:51;2.10;;;1.30;;
15126;SDS011;7664;52.008;4.748;2023-07-29T08:02:20;1.88;;;1.20;;
15126;SDS011;7664;52.008;4.748;2023-07-29T08:04:49;2.75;;;1.30;;
15126;SDS011;7664;52.008;4.748;2023-07-29T08:07:17;2.45;;;1.17;;
15126;SDS011;7664;52.008;4.748;2023-07-29T08:09:46;2.90;;;1.20;;
15126;SDS011;7664;52.008;4.748;2023-07-29T08:12:14;3.03;;;1.30;;
15126;SDS011;7664;52.008;4.748;2023-07-29T08:14:45;2.05;;;1.10;;
15126;SDS011;7664;52.008;4.748;2023-07-29T08:17:14;3.08;;;1.52;;
15126;SDS011;7664;52.008;4.748;2023-07-29T08:19:43;2.05;;;1.20;;
15126;SDS011;7664;52.008;4.748;2023-07-29T08:22:12;3.38;;;1.25;;
15126;SDS011;7664;52.008;4.748;2023-07-29T08:24:40;2.25;;;1.27;;
15126;SDS011;7664;52.008;4.748;2023-07-29T08:27:09;2.20;;;1.50;;
15126;SDS011;7664;52.008;4.748;2023-07-29T08:29:37;2.70;;;1.60;;
15126;SDS011;7664;52.008;4.748;2023-07-29T08:32:06;1.85;;;1.45;;
15126;SDS011;7664;52.008;4.748;2023-07-29T08:34:34;1.77;;;1.38;;
15126;SDS011;7664;52.008;4.748;2023-07-29T08:37:04;1.80;;;1.23;;
15126;SDS011;7664;52.008;4.748;2023-07-29T08:39:33;2.42;;;1.13;;
15126;SDS011;7664;52.008;4.748;2023-07-29T08:42:02;1.15;;;1.02;;
15126;SDS011;7664;52.008;4.748;2023-07-29T08:44:35;2.15;;;1.50;;
15126;SDS011;7664;52.008;4.748;2023-07-29T08:47:04;3.97;;;1.40;;
15126;SDS011;7664;52.008;4.748;2023-07-29T08:49:33;3.53;;;1.38;;
15126;SDS011;7664;52.008;4.748;2023-07-29T08:52:05;2.47;;;1.38;;
15126;SDS011;7664;52.008;4.748;2023-07-29T08:54:35;1.60;;;1.30;;
15126;SDS011;7664;52.008;4.748;2023-07-29T08:57:03;2.13;;;1.33;;
15126;SDS011;7664;52.008;4.748;2023-07-29T08:59:33;2.35;;;1.65;;
15126;SDS011;7664;52.008;4.748;2023-07-29T09:02:02;3.20;;;1.90;;
15126;SDS011;7664;52.008;4.748;2023-07-29T09:04:30;2.28;;;1.63;;
15126;SDS011;7664;52.008;4.748;2023-07-29T09:06:59;2.88;;;1.60;;
15126;SDS011;7664;52.008;4.748;2023-07-29T09:09:28;2.28;;;1.80;;
15126;SDS011;7664;52.008;4.748;2023-07-29T09:11:57;3.63;;;1.60;;
15126;SDS011;7664;52.008;4.748;2023-07-29T09:14:25;3.95;;;1.70;;
15126;SDS011;7664;52.008;4.748;2023-07-29T09:16:55;3.10;;;1.65;;
15126;SDS011;7664;52.008;4.748;2023-07-29T09:19:25;3.17;;;1.67;;
15126;SDS011;7664;52.008;4.748;2023-07-29T09:21:54;4.50;;;1.58;;
15126;SDS011;7664;52.008;4.748;2023-07-29T09:24:23;3.03;;;1.65;;
15126;SDS011;7664;52.008;4.748;2023-07-29T09:26:57;3.95;;;1.40;;
15126;SDS011;7664;52.008;4.748;2023-07-29T09:29:27;2.70;;;1.45;;
15126;SDS011;7664;52.008;4.748;2023-07-29T09:32:06;2.15;;;1.83;;
15126;SDS011;7664;52.008;4.748;2023-07-29T09:34:45;4.13;;;1.73;;
15126;SDS011;7664;52.008;4.748;2023-07-29T09:37:17;1.95;;;1.40;;
15126;SDS011;7664;52.008;4.748;2023-07-29T09:39:45;2.05;;;1.77;;
15126;SDS011;7664;52.008;4.748;2023-07-29T09:42:19;3.17;;;1.73;;
15126;SDS011;7664;52.008;4.748;2023-07-29T09:44:48;4.30;;;1.73;;
15126;SDS011;7664;52.008;4.748;2023-07-29T09:47:20;2.30;;;1.20;;
15126;SDS011;7664;52.008;4.748;2023-07-29T09:49:49;2.60;;;1.65;;
15126;SDS011;7664;52.008;4.748;2023-07-29T09:52:17;1.77;;;1.48;;
15126;SDS011;7664;52.008;4.748;2023-07-29T09:54:46;4.20;;;1.70;;
15126;SDS011;7664;52.008;4.748;2023-07-29T09:57:16;1.67;;;1.42;;
15126;SDS011;7664;52.008;4.748;2023-07-29T09:59:54;1.60;;;1.50;;
15126;SDS011;7664;52.008;4.748;2023-07-29T10:02:23;1.92;;;1.73;;
15126;SDS011;7664;52.008;4.748;2023-07-29T10:04:55;1.52;;;1.42;;
15126;SDS011;7664;52.008;4.748;2023-07-29T10:07:24;1.83;;;1.50;;
15126;SDS011;7664;52.008;4.748;2023-07-29T10:09:53;2.13;;;1.58;;
15126;SDS011;7664;52.008;4.748;2023-07-29T10:12:23;2.28;;;1.60;;
15126;SDS011;7664;52.008;4.748;2023-07-29T10:14:54;2.47;;;1.55;;
15126;SDS011;7664;52.008;4.748;2023-07-29T10:17:23;1.85;;;1.20;;
15126;SDS011;7664;52.008;4.748;2023-07-29T10:19:52;1.05;;;0.95;;
15126;SDS011;7664;52.008;4.748;2023-07-29T10:22:20;2.90;;;1.20;;
15126;SDS011;7664;52.008;4.748;2023-07-29T10:24:49;1.60;;;0.90;;
15126;SDS011;7664;52.008;4.748;2023-07-29T10:27:19;0.70;;;0.60;;
15126;SDS011;7664;52.008;4.748;2023-07-29T10:29:49;0.60;;;0.60;;
15126;SDS011;7664;52.008;4.748;2023-07-29T10:32:19;1.55;;;0.70;;
15126;SDS011;7664;52.008;4.748;2023-07-29T10:34:49;1.30;;;0.52;;
15126;SDS011;7664;52.008;4.748;2023-07-29T10:37:29;0.50;;;0.30;;
15126;SDS011;7664;52.008;4.748;2023-07-29T10:39:57;0.52;;;0.43;;
15126;SDS011;7664;52.008;4.748;2023-07-29T10:42:25;0.57;;;0.40;;
15126;SDS011;7664;52.008;4.748;2023-07-29T10:44:54;0.60;;;0.50;;
15126;SDS011;7664;52.008;4.748;2023-07-29T10:47:23;0.45;;;0.30;;
15126;SDS011;7664;52.008;4.748;2023-07-29T10:49:52;2.67;;;0.75;;
15126;SDS011;7664;52.008;4.748;2023-07-29T10:52:29;1.02;;;0.50;;
15126;SDS011;7664;52.008;4.748;2023-07-29T10:54:57;1.52;;;0.70;;
15126;SDS011;7664;52.008;4.748;2023-07-29T10:57:30;2.33;;;0.50;;
15126;SDS011;7664;52.008;4.748;2023-07-29T10:59:59;0.75;;;0.40;;
15126;SDS011;7664;52.008;4.748;2023-07-29T11:02:30;3.85;;;0.40;;
15126;SDS011;7664;52.008;4.748;2023-07-29T11:04:58;1.23;;;0.57;;
15126;SDS011;7664;52.008;4.748;2023-07-29T11:07:29;1.63;;;0.80;;
15126;SDS011;7664;52.008;4.748;2023-07-29T11:10:01;0.40;;;0.40;;
15126;SDS011;7664;52.008;4.748;2023-07-29T11:12:40;1.17;;;0.80;;
15126;SDS011;7664;52.008;4.748;2023-07-29T11:15:13;1.73;;;0.80;;
15126;SDS011;7664;52.008;4.748;2023-07-29T11:17:42;1.15;;;0.60;;
15126;SDS011;7664;52.008;4.748;2023-07-29T11:20:11;0.93;;;0.63;;
15126;SDS011;7664;52.008;4.748;2023-07-29T11:22:42;1.48;;;0.80;;
15126;SDS011;7664;52.008;4.748;2023-07-29T11:25:11;1.33;;;0.88;;
15126;SDS011;7664;52.008;4.748;2023-07-29T11:27:40;3.30;;;0.80;;
15126;SDS011;7664;52.008;4.748;2023-07-29T11:30:08;1.35;;;0.80;;
15126;SDS011;7664;52.008;4.748;2023-07-29T11:32:37;2.80;;;1.00;;
15126;SDS011;7664;52.008;4.748;2023-07-29T11:35:07;1.35;;;0.98;;
15126;SDS011;7664;52.008;4.748;2023-07-29T11:37:36;2.80;;;1.00;;
15126;SDS011;7664;52.008;4.748;2023-07-29T11:40:07;2.38;;;1.13;;
15126;SDS011;7664;52.008;4.748;2023-07-29T11:42:36;1.55;;;0.80;;
15126;SDS011;7664;52.008;4.748;2023-07-29T11:45:06;1.67;;;0.98;;
15126;SDS011;7664;52.008;4.748;2023-07-29T11:47:34;0.75;;;0.70;;
15126;SDS011;7664;52.008;4.748;2023-07-29T11:50:04;1.45;;;0.47;;
15126;SDS011;7664;52.008;4.748;2023-07-29T11:52:33;1.10;;;0.85;;
15126;SDS011;7664;52.008;4.748;2023-07-29T11:55:02;1.33;;;0.60;;
15126;SDS011;7664;52.008;4.748;2023-07-29T11:57:34;1.33;;;0.73;;
15126;SDS011;7664;52.008;4.748;2023-07-29T12:00:03;1.42;;;0.88;;
15126;SDS011;7664;52.008;4.748;2023-07-29T12:02:36;1.95;;;0.82;;
15126;SDS011;7664;52.008;4.748;2023-07-29T12:05:05;0.82;;;0.82;;
15126;SDS011;7664;52.008;4.748;2023-07-29T12:07:34;1.38;;;1.17;;
15126;SDS011;7664;52.008;4.748;2023-07-29T12:10:02;1.85;;;0.70;;
15126;SDS011;7664;52.008;4.748;2023-07-29T12:12:31;2.45;;;0.95;;
15126;SDS011;7664;52.008;4.748;2023-07-29T12:15:01;1.10;;;0.93;;
15126;SDS011;7664;52.008;4.748;2023-07-29T12:17:30;0.73;;;0.73;;
15126;SDS011;7664;52.008;4.748;2023-07-29T12:19:58;1.20;;;0.80;;
15126;SDS011;7664;52.008;4.748;2023-07-29T12:22:27;1.75;;;1.20;;
15126;SDS011;7664;52.008;4.748;2023-07-29T12:24:56;4.38;;;1.33;;
15126;SDS011;7664;52.008;4.748;2023-07-29T12:27:25;3.38;;;0.93;;
15126;SDS011;7664;52.008;4.748;2023-07-29T12:29:53;4.00;;;1.20;;
15126;SDS011;7664;52.008;4.748;2023-07-29T12:32:24;2.08;;;1.25;;
15126;SDS011;7664;52.008;4.748;2023-07-29T12:34:53;1.42;;;1.00;;
15126;SDS011;7664;52.008;4.748;2023-07-29T12:37:30;2.13;;;1.50;;
15126;SDS011;7664;52.008;4.748;2023-07-29T12:39:58;1.55;;;1.15;;
15126;SDS011;7664;52.008;4.748;2023-07-29T12:42:27;4.65;;;1.60;;
15126;SDS011;7664;52.008;4.748;2023-07-29T12:44:55;1.52;;;1.10;;
15126;SDS011;7664;52.008;4.748;2023-07-29T12:47:25;1.65;;;1.33;;
15126;SDS011;7664;52.008;4.748;2023-07-29T12:49:54;2.92;;;1.40;;
15126;SDS011;7664;52.008;4.748;2023-07-29T12:52:22;2.22;;;1.50;;
15126;SDS011;7664;52.008;4.748;2023-07-29T12:54:51;1.42;;;1.25;;
15126;SDS011;7664;52.008;4.748;2023-07-29T12:57:19;2.47;;;1.65;;
15126;SDS011;7664;52.008;4.748;2023-07-29T12:59:48;1.50;;;1.00;;
15126;SDS011;7664;52.008;4.748;2023-07-29T13:02:16;1.67;;;1.10;;
15126;SDS011;7664;52.008;4.748;2023-07-29T13:04:46;1.58;;;1.10;;
15126;SDS011;7664;52.008;4.748;2023-07-29T13:07:14;1.67;;;0.77;;
15126;SDS011;7664;52.008;4.748;2023-07-29T13:09:43;0.70;;;0.70;;
15126;SDS011;7664;52.008;4.748;2023-07-29T13:12:11;1.55;;;1.00;;
15126;SDS011;7664;52.008;4.748;2023-07-29T13:14:39;2.85;;;1.08;;
15126;SDS011;7664;52.008;4.748;2023-07-29T13:17:08;2.20;;;0.80;;
15126;SDS011;7664;52.008;4.748;2023-07-29T13:19:36;0.70;;;0.60;;
15126;SDS011;7664;52.008;4.748;2023-07-29T13:22:06;1.95;;;0.77;;
15126;SDS011;7664;52.008;4.748;2023-07-29T13:24:35;2.47;;;0.73;;
15126;SDS011;7664;52.008;4.748;2023-07-29T13:27:04;2.40;;;0.70;;
15126;SDS011;7664;52.008;4.748;2023-07-29T13:29:33;1.73;;;0.70;;
15126;SDS011;7664;52.008;4.748;2023-07-29T13:32:02;1.00;;;0.70;;
15126;SDS011;7664;52.008;4.748;2023-07-29T13:34:30;2.38;;;1.00;;
15126;SDS011;7664;52.008;4.748;2023-07-29T13:37:01;3.17;;;0.90;;
15126;SDS011;7664;52.008;4.748;2023-07-29T13:39:31;0.98;;;0.70;;
15126;SDS011;7664;52.008;4.748;2023-07-29T13:42:00;0.80;;;0.70;;
15126;SDS011;7664;52.008;4.748;2023-07-29T13:44:28;1.30;;;0.47;;
15126;SDS011;7664;52.008;4.748;2023-07-29T13:46:56;1.42;;;0.70;;
15126;SDS011;7664;52.008;4.748;2023-07-29T13:49:25;0.60;;;0.60;;
15126;SDS011;7664;52.008;4.748;2023-07-29T13:51:53;0.70;;;0.60;;
15126;SDS011;7664;52.008;4.748;2023-07-29T13:54:22;1.58;;;0.50;;
15126;SDS011;7664;52.008;4.748;2023-07-29T13:56:51;2.15;;;0.60;;
15126;SDS011;7664;52.008;4.748;2023-07-29T13:59:20;2.63;;;0.65;;
15126;SDS011;7664;52.008;4.748;2023-07-29T14:01:48;0.90;;;0.50;;
15126;SDS011;7664;52.008;4.748;2023-07-29T14:04:17;0.90;;;0.70;;
15126;SDS011;7664;52.008;4.748;2023-07-29T14:06:46;1.65;;;0.40;;
15126;SDS011;7664;52.008;4.748;2023-07-29T14:09:21;1.65;;;0.50;;
15126;SDS011;7664;52.008;4.748;2023-07-29T14:11:49;1.15;;;0.70;;
15126;SDS011;7664;52.008;4.748;2023-07-29T14:14:20;1.20;;;0.50;;
15126;SDS011;7664;52.008;4.748;2023-07-29T14:16:49;1.95;;;0.63;;
15126;SDS011;7664;52.008;4.748;2023-07-29T14:19:18;1.52;;;0.80;;
15126;SDS011;7664;52.008;4.748;2023-07-29T14:21:46;2.60;;;0.80;;
15126;SDS011;7664;52.008;4.748;2023-07-29T14:24:14;0.73;;;0.68;;
15126;SDS011;7664;52.008;4.748;2023-07-29T14:26:43;3.05;;;0.65;;
15126;SDS011;7664;52.008;4.748;2023-07-29T14:29:12;1.35;;;0.70;;
15126;SDS011;7664;52.008;4.748;2023-07-29T14:31:42;2.05;;;0.90;;
15126;SDS011;7664;52.008;4.748;2023-07-29T14:34:10;1.58;;;1.05;;
15126;SDS011;7664;52.008;4.748;2023-07-29T14:36:38;0.80;;;0.60;;
15126;SDS011;7664;52.008;4.748;2023-07-29T14:39:06;1.23;;;0.65;;
15126;SDS011;7664;52.008;4.748;2023-07-29T14:41:35;1.15;;;0.60;;
15126;SDS011;7664;52.008;4.748;2023-07-29T14:44:03;1.17;;;0.65;;
15126;SDS011;7664;52.008;4.748;2023-07-29T14:46:32;2.33;;;0.75;;
15126;SDS011;7664;52.008;4.748;2023-07-29T14:49:03;0.88;;;0.55;;
15126;SDS011;7664;52.008;4.748;2023-07-29T14:51:31;2.60;;;1.00;;
15126;SDS011;7664;52.008;4.748;2023-07-29T14:54:00;0.75;;;0.70;;
15126;SDS011;7664;52.008;4.748;2023-07-29T14:56:28;0.85;;;0.60;;
15126;SDS011;7664;52.008;4.748;2023-07-29T14:58:56;1.10;;;0.73;;
15126;SDS011;7664;52.008;4.748;2023-07-29T15:01:25;1.95;;;0.75;;
15126;SDS011;7664;52.008;4.748;2023-07-29T15:03:53;3.17;;;1.20;;
15126;SDS011;7664;52.008;4.748;2023-07-29T15:06:23;1.27;;;0.90;;
15126;SDS011;7664;52.008;4.748;2023-07-29T15:08:51;2.90;;;0.90;;
15126;SDS011;7664;52.008;4.748;2023-07-29T15:11:20;1.15;;;0.60;;